Time;durP1;ratioP1;P1;durP2;ratioP2;P2;SDS_P1;SDS_P2;PMS_P1;PMS_P2;Temp;Humidity;BMP_temperature;BMP_pressure;BME280_temperature;BME280_humidity;BME280_pressure;Samples;Min_cycle;Max_cycle;Signal;HPM_P1;HPM_P2
2024/03/08 00:02:19;;;;;;;36.83;18.10;;;;;;;8.15;49.27;102087.44;5024224;27;99220;-74
2024/03/08 00:04:45;;;;;;;32.78;16.48;;;;;;;8.25;49.04;102086.53;5031881;27;97217;-74
2024/03/08 00:07:13;;;;;;;37.10;17.48;;;;;;;8.13;49.26;102083.06;5033499;27;96895;-74
2024/03/08 00:09:40;;;;;;;40.08;17.17;;;;;;;8.32;49.02;102087.41;5023824;27;102036;-75
2024/03/08 00:12:08;;;;;;;34.22;17.60;;;;;;;7.97;49.81;102082.25;5024679;27;99403;-74
2024/03/08 00:14:35;;;;;;;36.05;17.65;;;;;;;8.09;49.92;102089.22;5029276;27;96890;-74
2024/03/08 00:17:01;;;;;;;34.20;18.55;;;;;;;8.21;49.59;102083.88;5035446;27;96760;-74
2024/03/08 00:19:28;;;;;;;34.85;18.08;;;;;;;8.10;49.97;102085.69;5029365;27;101673;-74
2024/03/08 00:21:55;;;;;;;35.47;17.75;;;;;;;8.13;49.70;102081.31;5040683;27;101902;-77
2024/03/08 00:24:25;;;;;;;33.08;18.50;;;;;;;7.98;50.01;102078.72;5033437;27;96909;-73
2024/03/08 00:26:51;;;;;;;35.75;17.15;;;;;;;8.33;49.36;102074.22;5032676;27;96889;-73
2024/03/08 00:29:19;;;;;;;35.38;18.42;;;;;;;8.34;49.06;102078.59;5034057;27;99334;-74
2024/03/08 00:31:45;;;;;;;38.88;18.40;;;;;;;8.19;49.53;102083.03;5032514;27;98865;-72
2024/03/08 00:34:12;;;;;;;36.30;17.90;;;;;;;8.01;49.66;102081.34;5026811;27;97080;-74
2024/03/08 00:36:38;;;;;;;36.95;17.98;;;;;;;8.26;49.52;102077.75;5032286;27;97198;-74
2024/03/08 00:39:06;;;;;;;34.78;17.17;;;;;;;8.06;49.88;102076.94;5033805;27;98751;-75
2024/03/08 00:41:33;;;;;;;32.70;16.65;;;;;;;8.09;49.82;102073.41;5032462;27;100761;-72
2024/03/08 00:44:00;;;;;;;37.75;18.63;;;;;;;7.93;50.13;102072.63;5035398;27;96807;-74
2024/03/08 00:46:28;;;;;;;35.47;18.08;;;;;;;8.00;49.98;102071.72;5024078;27;96958;-75
2024/03/08 00:48:55;;;;;;;41.58;18.15;;;;;;;8.13;49.91;102070.78;5037446;27;99289;-74
2024/03/08 00:51:22;;;;;;;35.22;18.52;;;;;;;8.20;49.66;102072.50;5033161;27;99030;-73
2024/03/08 00:53:48;;;;;;;34.55;17.23;;;;;;;8.21;49.40;102061.06;5029359;27;98322;-74
2024/03/08 00:56:14;;;;;;;37.22;18.35;;;;;;;8.16;49.67;102060.22;5034703;27;96864;-75
2024/03/08 00:58:41;;;;;;;37.42;17.80;;;;;;;8.07;49.47;102067.31;5029461;27;97584;-74
2024/03/08 01:01:07;;;;;;;34.33;17.90;;;;;;;8.15;49.31;102066.38;5031457;27;98898;-72
2024/03/08 01:03:36;;;;;;;37.67;18.67;;;;;;;7.99;50.00;102065.56;5025858;27;96893;-72
2024/03/08 01:06:04;;;;;;;38.28;18.92;;;;;;;7.86;51.75;102061.25;5027191;27;97044;-73
2024/03/08 01:08:30;;;;;;;36.95;18.95;;;;;;;7.76;53.14;102062.13;5029839;27;99336;-72
2024/03/08 01:10:57;;;;;;;35.50;17.83;;;;;;;7.67;53.92;102053.41;5032321;27;98934;-74
2024/03/08 01:13:23;;;;;;;36.53;18.25;;;;;;;7.66;54.13;102054.28;5033316;27;96819;-74
2024/03/08 01:15:50;;;;;;;37.90;19.15;;;;;;;7.50;54.37;102051.69;5036099;27;96710;-74
2024/03/08 01:18:15;;;;;;;35.75;18.05;;;;;;;7.54;53.84;102047.31;5026517;27;102108;-75
2024/03/08 01:20:43;;;;;;;;;;;;;;;7.74;53.38;102041.97;5029337;27;99089;-75
2024/03/08 01:23:09;;;;;;;33.30;17.05;;;;;;;7.76;52.68;102043.72;5029292;27;98510;-75
2024/03/08 01:25:36;;;;;;;41.08;18.15;;;;;;;7.70;52.51;102037.59;5027232;27;97192;-75
2024/03/08 01:28:02;;;;;;;40.75;18.10;;;;;;;7.72;53.32;102033.22;5028854;27;100495;-75
2024/03/08 01:30:28;;;;;;;37.40;17.85;;;;;;;7.48;53.88;102029.75;5028270;27;99722;-74
2024/03/08 01:32:55;;;;;;;35.97;18.58;;;;;;;7.46;53.69;102023.66;5030542;27;96892;-75
2024/03/08 01:35:22;;;;;;;35.75;17.58;;;;;;;7.65;53.75;102026.22;5025269;27;96859;-73
2024/03/08 01:37:50;;;;;;;34.35;17.83;;;;;;;7.71;53.31;102023.56;5030604;27;99131;-74
2024/03/08 01:40:17;;;;;;;35.55;18.42;;;;;;;7.99;52.33;102026.09;5031580;27;98810;-73
2024/03/08 01:42:44;;;;;;;35.42;18.42;;;;;;;7.83;52.05;102015.63;5026757;27;97089;-74
2024/03/08 01:45:11;;;;;;;34.65;18.02;;;;;;;7.75;52.69;102020.91;5024681;27;96902;-74
2024/03/08 01:47:38;;;;;;;34.33;17.60;;;;;;;7.59;53.47;102004.31;5027498;27;102548;-74
2024/03/08 01:50:06;;;;;;;39.33;17.80;;;;;;;7.71;53.26;102007.78;5030917;27;98808;-73
2024/03/08 01:52:33;;;;;;;38.63;18.30;;;;;;;7.74;52.87;102006.03;5035298;27;97279;-73
2024/03/08 01:55:03;;;;;;;37.38;17.73;;;;;;;7.98;51.17;102003.28;5028196;27;98657;-74
2024/03/08 01:57:33;;;;;;;37.78;18.83;;;;;;;8.11;49.81;101993.56;5032320;27;100420;-74
2024/03/08 02:00:03;;;;;;;36.35;18.05;;;;;;;8.31;48.79;101996.97;5029983;27;98709;-73
2024/03/08 02:02:31;;;;;;;34.08;17.13;;;;;;;8.37;48.30;101996.06;5028067;27;97121;-73
2024/03/08 02:04:57;;;;;;;42.42;18.48;;;;;;;8.54;47.57;101988.03;5026478;27;97405;-73
2024/03/08 02:07:24;;;;;;;40.95;18.48;;;;;;;8.54;47.58;101998.56;5025444;27;98297;-73
2024/03/08 02:09:51;;;;;;;37.53;18.38;;;;;;;8.43;47.66;101992.50;5026647;27;98799;-74
2024/03/08 02:12:20;;;;;;;39.63;17.75;;;;;;;8.42;47.67;101994.25;5028327;27;97186;-75
2024/03/08 02:14:46;;;;;;;40.83;17.92;;;;;;;8.27;47.59;101987.28;5027706;27;97060;-73
2024/03/08 02:17:13;;;;;;;40.00;18.90;;;;;;;8.23;48.02;101988.22;5029573;27;98012;-74
2024/03/08 02:19:40;;;;;;;40.60;17.92;;;;;;;8.23;47.85;101985.59;5030731;27;101096;-73
2024/03/08 02:22:07;;;;;;;35.65;18.15;;;;;;;8.21;48.00;101989.97;5027420;27;96702;-73
2024/03/08 02:24:35;;;;;;;38.47;18.50;;;;;;;8.26;47.96;101984.69;5027495;27;97095;-73
2024/03/08 02:27:02;;;;;;;39.00;17.48;;;;;;;8.21;47.85;101984.72;5030521;27;99258;-72
2024/03/08 02:29:29;;;;;;;42.33;18.65;;;;;;;8.22;48.02;101986.47;5028299;27;98850;-73
2024/03/08 02:31:55;;;;;;;34.53;17.77;;;;;;;7.94;48.19;101983.09;5030816;27;97060;-74
2024/03/08 02:34:22;;;;;;;38.30;18.35;;;;;;;8.26;47.74;101976.81;5025605;27;97239;-73
2024/03/08 02:36:48;;;;;;;39.15;18.92;;;;;;;8.31;47.42;101975.91;5025382;27;98114;-73
2024/03/08 02:39:16;;;;;;;39.40;19.02;;;;;;;8.34;47.43;101977.63;5026886;27;98980;-73
2024/03/08 02:41:43;;;;;;;36.95;17.95;;;;;;;8.24;47.54;101979.44;5027912;27;97321;-73
2024/03/08 02:44:09;;;;;;;39.33;18.80;;;;;;;7.92;48.34;101981.38;5028163;27;96897;-74
2024/03/08 02:46:36;;;;;;;39.65;18.42;;;;;;;8.21;47.97;101975.94;5027157;27;100801;-74
2024/03/08 02:49:02;;;;;;;40.25;19.42;;;;;;;7.96;48.16;101975.19;5029358;27;99066;-73
2024/03/08 02:51:30;;;;;;;39.95;18.42;;;;;;;8.06;48.31;101969.03;5034299;27;96807;-74
2024/03/08 02:53:57;;;;;;;37.53;17.67;;;;;;;8.21;47.99;101970.66;5031535;27;96863;-74
2024/03/08 02:56:25;;;;;;;35.60;17.10;;;;;;;8.11;48.20;101964.59;5033803;27;98906;-74
2024/03/08 02:58:53;;;;;;;38.20;17.83;;;;;;;8.23;48.01;101964.50;5028901;27;99590;-75
2024/03/08 03:01:20;;;;;;;35.50;17.48;;;;;;;8.08;48.26;101961.97;5032465;27;97242;-74
2024/03/08 03:03:47;;;;;;;40.60;18.75;;;;;;;8.09;48.20;101953.19;5024980;27;98399;-74
2024/03/08 03:06:14;;;;;;;42.92;18.02;;;;;;;8.13;48.06;101962.84;5022006;27;102022;-74
2024/03/08 03:08:44;;;;;;;41.38;18.30;;;;;;;8.18;48.02;101961.03;5030662;27;99520;-75
2024/03/08 03:11:10;;;;;;;37.53;18.17;;;;;;;8.10;48.00;101954.94;5026421;27;97830;-73
2024/03/08 03:13:38;;;;;;;37.95;18.48;;;;;;;8.18;48.11;101955.78;5021807;27;97954;-73
2024/03/08 03:16:05;;;;;;;36.85;18.45;;;;;;;8.06;48.21;101953.22;5023558;27;98105;-73
2024/03/08 03:18:32;;;;;;;42.20;19.23;;;;;;;8.18;47.89;101953.16;5024785;27;99293;-73
2024/03/08 03:20:59;;;;;;;38.38;18.88;;;;;;;8.20;47.92;101951.38;5014648;27;100831;-74
2024/03/08 03:23:26;;;;;;;41.67;19.55;;;;;;;8.18;47.79;101947.88;5024292;27;97550;-75
2024/03/08 03:25:53;;;;;;;37.33;18.13;;;;;;;7.96;48.49;101951.50;5030189;27;101611;-74
2024/03/08 03:28:21;;;;;;;40.45;18.25;;;;;;;8.10;48.48;101954.06;5024829;27;101188;-74
2024/03/08 03:30:49;;;;;;;39.72;18.80;;;;;;;8.11;48.12;101951.44;5026423;27;98257;-74
2024/03/08 03:33:16;;;;;;;40.17;19.45;;;;;;;8.23;47.97;101955.75;5026170;27;96902;-73
2024/03/08 03:35:43;;;;;;;38.17;18.05;;;;;;;8.09;48.37;101953.19;5025827;27;99158;-75
2024/03/08 03:38:10;;;;;;;40.38;19.35;;;;;;;8.13;48.43;101944.41;5025777;27;100832;-74
2024/03/08 03:40:37;;;;;;;43.97;19.08;;;;;;;8.09;48.33;101950.56;5033218;27;97748;-74
2024/03/08 03:43:04;;;;;;;40.67;20.20;;;;;;;8.15;48.32;101949.63;5028571;27;97875;-74
2024/03/08 03:45:34;;;;;;;43.67;19.63;;;;;;;8.02;48.82;101943.59;5032473;27;98915;-74
2024/03/08 03:48:03;;;;;;;40.58;19.83;;;;;;;8.05;48.49;101947.97;5028957;27;102295;-74
2024/03/08 03:50:29;;;;;;;38.30;18.70;;;;;;;8.04;48.82;101948.84;5027284;27;98450;-73
2024/03/08 03:52:55;;;;;;;42.08;19.45;;;;;;;7.91;48.89;101948.91;5024887;27;96877;-74
2024/03/08 03:55:22;;;;;;;39.42;19.35;;;;;;;7.91;49.18;101948.03;5026283;27;100918;-74
2024/03/08 03:57:49;;;;;;;40.60;19.70;;;;;;;8.00;48.88;101942.75;5024228;27;99156;-74
2024/03/08 04:00:15;;;;;;;38.78;18.63;;;;;;;7.76;49.24;101941.09;5027082;27;96938;-74
2024/03/08 04:02:42;;;;;;;44.33;18.80;;;;;;;7.78;49.23;101952.50;5025762;27;97372;-74
2024/03/08 04:05:11;;;;;;;41.65;19.27;;;;;;;7.93;49.05;101947.16;5022285;27;99017;-74
2024/03/08 04:07:38;;;;;;;43.92;20.15;;;;;;;8.00;48.84;101942.75;5021847;27;97506;-73
2024/03/08 04:10:07;;;;;;;41.55;20.55;;;;;;;7.97;48.83;101940.09;5021331;27;96618;-73
2024/03/08 04:12:33;;;;;;;43.97;20.52;;;;;;;7.76;49.32;101950.75;5026765;27;97247;-73
2024/03/08 04:15:00;;;;;;;62.40;28.67;;;;;;;7.87;49.24;101944.56;5024919;27;97899;-73
2024/03/08 04:17:26;;;;;;;44.50;19.17;;;;;;;7.99;49.10;101935.72;5026786;27;98933;-73
2024/03/08 04:19:52;;;;;;;40.80;19.52;;;;;;;7.86;48.97;101934.03;5019130;27;97282;-73
2024/03/08 04:22:20;;;;;;;48.78;20.20;;;;;;;7.82;49.38;101945.44;5021360;27;98447;-73
2024/03/08 04:24:47;;;;;;;42.33;20.30;;;;;;;7.97;48.89;101943.63;5024744;27;99187;-73
2024/03/08 04:27:14;;;;;;;46.63;20.65;;;;;;;8.11;48.60;101946.16;5023160;27;99023;-74
2024/03/08 04:29:41;;;;;;;45.72;20.60;;;;;;;7.87;49.10;101944.56;5025137;27;96745;-74
2024/03/08 04:32:08;;;;;;;42.08;20.85;;;;;;;7.86;49.10;101944.56;5026647;27;97366;-73
2024/03/08 04:34:35;;;;;;;41.67;20.33;;;;;;;7.78;49.31;101946.34;5023640;27;102218;-74
2024/03/08 04:37:01;;;;;;;43.55;20.23;;;;;;;8.00;48.87;101945.38;5022232;27;100865;-74
2024/03/08 04:39:30;;;;;;;44.70;20.33;;;;;;;7.92;49.07;101947.16;5020157;27;98207;-73
2024/03/08 04:41:59;;;;;;;46.50;21.23;;;;;;;7.79;49.72;101942.84;5030890;27;96921;-75
2024/03/08 04:44:25;;;;;;;43.13;21.52;;;;;;;7.71;49.92;101944.63;5025320;27;98158;-75
2024/03/08 04:46:52;;;;;;;42.67;21.13;;;;;;;7.64;50.13;101937.66;5024758;27;97997;-74
2024/03/08 04:49:18;;;;;;;43.17;19.33;;;;;;;7.76;49.77;101938.47;5024344;27;98925;-75
2024/03/08 04:51:45;;;;;;;50.65;21.58;;;;;;;7.80;49.85;101939.34;5022479;27;99609;-74
2024/03/08 04:54:12;;;;;;;46.33;21.73;;;;;;;7.89;49.32;101934.88;5028508;27;99576;-74
2024/03/08 04:56:40;;;;;;;43.97;21.58;;;;;;;7.73;49.72;101934.97;5018881;27;98790;-74
2024/03/08 04:59:08;;;;;;;44.25;20.92;;;;;;;7.56;50.42;101937.69;5018004;27;97169;-73
2024/03/08 05:01:36;;;;;;;45.67;20.83;;;;;;;7.77;49.79;101934.06;5021723;27;97323;-74
2024/03/08 05:04:02;;;;;;;41.55;20.98;;;;;;;7.58;50.07;101939.44;5016081;27;99060;-74
2024/03/08 05:06:30;;;;;;;45.38;21.65;;;;;;;7.58;50.05;101928.91;5026281;27;97590;-74
2024/03/08 05:08:56;;;;;;;49.13;21.63;;;;;;;7.37;50.60;101933.38;5021045;27;97994;-73
2024/03/08 05:11:23;;;;;;;42.35;20.70;;;;;;;7.36;50.85;101927.22;5028513;27;97322;-73
2024/03/08 05:13:50;;;;;;;48.63;22.17;;;;;;;7.40;50.89;101931.63;5025159;27;97852;-72
2024/03/08 05:16:17;;;;;;;47.13;21.05;;;;;;;7.58;50.34;101928.91;5019850;27;99123;-72
2024/03/08 05:18:43;;;;;;;53.30;22.73;;;;;;;7.51;50.41;101927.19;5021983;27;97139;-73
2024/03/08 05:21:10;;;;;;;44.63;21.40;;;;;;;7.38;50.90;101936.00;5024853;27;96831;-73
2024/03/08 05:23:38;;;;;;;48.67;22.00;;;;;;;7.42;50.89;101932.47;5018744;27;98939;-70
2024/03/08 05:26:04;;;;;;;46.58;21.08;;;;;;;7.46;50.73;101934.22;5020241;27;99510;-70
2024/03/08 05:28:31;;;;;;;47.13;22.50;;;;;;;7.50;50.60;101933.31;5026442;27;97841;-70
2024/03/08 05:30:58;;;;;;;48.45;23.17;;;;;;;7.50;50.70;101925.44;5025730;27;97247;-70
2024/03/08 05:33:25;;;;;;;46.80;22.38;;;;;;;7.39;50.96;101929.00;5023024;27;98957;-71
2024/03/08 05:35:51;;;;;;;43.92;21.83;;;;;;;7.37;50.97;101926.34;5023517;27;99466;-71
2024/03/08 05:38:20;;;;;;;44.13;22.02;;;;;;;7.38;51.27;101924.59;5016408;27;97498;-70
2024/03/08 05:40:46;;;;;;;40.55;20.13;;;;;;;7.49;50.72;101921.03;5019487;27;98036;-70
2024/03/08 05:43:13;;;;;;;55.08;24.58;;;;;;;7.16;51.61;101918.53;5022209;27;98923;-71
2024/03/08 05:45:39;;;;;;;46.35;21.85;;;;;;;7.36;51.48;101921.97;5022685;27;98916;-71
2024/03/08 05:48:08;;;;;;;50.08;23.67;;;;;;;7.11;51.80;101921.19;5020315;27;97060;-70
2024/03/08 05:50:34;;;;;;;50.65;23.23;;;;;;;7.36;51.35;101921.09;5019445;27;97187;-71
2024/03/08 05:53:01;;;;;;;48.30;21.98;;;;;;;7.19;51.44;101922.03;5027674;27;102122;-71
2024/03/08 05:55:28;;;;;;;51.40;23.52;;;;;;;7.49;51.19;101926.31;5018055;27;99159;-70
2024/03/08 05:57:56;;;;;;;49.47;23.25;;;;;;;7.39;51.28;101916.72;5025700;27;98544;-70
2024/03/08 06:00:24;;;;;;;45.58;22.13;;;;;;;7.43;51.40;101934.22;5021862;27;97402;-70
2024/03/08 06:02:51;;;;;;;49.38;23.02;;;;;;;7.61;50.62;101928.03;5021637;27;98473;-71
2024/03/08 06:05:19;;;;;;;45.53;21.88;;;;;;;7.47;51.35;101924.59;5024015;27;99353;-71
2024/03/08 06:07:46;;;;;;;49.15;21.95;;;;;;;7.52;51.21;101933.31;5019463;27;96745;-70
2024/03/08 06:10:13;;;;;;;51.08;22.63;;;;;;;7.75;50.35;101933.19;5021849;27;97072;-70
2024/03/08 06:12:41;;;;;;;47.20;23.35;;;;;;;7.68;50.79;101932.34;5021868;27;98142;-71
2024/03/08 06:15:08;;;;;;;45.78;22.25;;;;;;;7.76;50.60;101932.31;5017019;27;99817;-70
2024/03/08 06:17:35;;;;;;;50.78;23.17;;;;;;;7.88;50.21;101929.63;5024609;27;96918;-70
2024/03/08 06:20:01;;;;;;;55.08;23.27;;;;;;;7.83;49.99;101929.66;5025438;27;96867;-72
2024/03/08 06:22:30;;;;;;;51.80;23.63;;;;;;;7.88;49.95;101930.50;5028783;27;101634;-71
2024/03/08 06:24:57;;;;;;;52.17;23.60;;;;;;;7.85;50.29;101925.28;5024197;27;99420;-71
2024/03/08 06:27:23;;;;;;;47.53;21.38;;;;;;;8.01;49.58;101931.28;5024225;28;97307;-71
2024/03/08 06:29:50;;;;;;;49.05;21.85;;;;;;;8.01;49.56;101931.28;5020723;27;97261;-71
2024/03/08 06:32:16;;;;;;;54.25;23.15;;;;;;;8.07;49.54;101935.69;5027442;27;101985;-70
2024/03/08 06:34:42;;;;;;;51.75;23.40;;;;;;;7.97;49.70;101933.09;5023556;27;102458;-71
2024/03/08 06:37:09;;;;;;;50.92;22.85;;;;;;;8.00;49.39;101937.47;5030648;27;97175;-71
2024/03/08 06:39:36;;;;;;;45.17;21.30;;;;;;;8.20;49.06;101929.44;5024938;27;97015;-69
2024/03/08 06:42:04;;;;;;;45.08;22.55;;;;;;;8.06;49.01;101931.28;5026501;27;103950;-69
2024/03/08 06:44:31;;;;;;;50.90;22.58;;;;;;;8.16;48.90;101930.31;5006742;27;99579;-70
2024/03/08 06:46:58;;;;;;;45.65;20.40;;;;;;;8.31;48.72;101920.59;5008301;27;98521;-70
2024/03/08 06:49:26;;;;;;;44.17;22.17;;;;;;;8.48;48.23;101919.59;5009191;27;97141;-69
2024/03/08 06:51:53;;;;;;;45.17;21.85;;;;;;;8.53;47.78;101930.97;5005416;27;99121;-71
2024/03/08 06:54:19;;;;;;;45.47;21.98;;;;;;;8.52;47.87;101927.47;5007806;27;99210;-71
2024/03/08 06:56:48;;;;;;;49.55;23.63;;;;;;;8.78;47.42;101921.97;5013292;27;98711;-70
2024/03/08 06:59:14;;;;;;;54.25;23.25;;;;;;;8.76;47.43;101921.09;5021451;27;97095;-74
2024/03/08 07:01:40;;;;;;;48.97;22.40;;;;;;;8.88;46.97;101930.63;5026781;27;101674;-74
2024/03/08 07:04:07;;;;;;;51.65;22.52;;;;;;;8.89;46.76;101925.38;5023284;27;100790;-74
2024/03/08 07:06:34;;;;;;;47.17;22.08;;;;;;;8.99;46.64;101928.78;5025194;27;96792;-74
2024/03/08 07:09:02;;;;;;;44.22;22.63;;;;;;;8.88;46.24;101917.47;5025983;27;97003;-70
2024/03/08 07:11:28;;;;;;;45.92;22.58;;;;;;;8.65;46.82;101922.97;5020811;27;97581;-70
2024/03/08 07:13:57;;;;;;;45.13;22.40;;;;;;;8.97;46.49;101920.91;5020042;27;98839;-70
2024/03/08 07:16:23;;;;;;;46.67;22.38;;;;;;;9.06;46.28;101919.91;5024174;27;96983;-71
2024/03/08 07:18:52;;;;;;;43.30;21.38;;;;;;;9.08;45.89;101918.13;5028673;27;98155;-70
2024/03/08 07:21:19;;;;;;;46.65;21.60;;;;;;;9.06;45.87;101920.78;5020514;27;99327;-70
2024/03/08 07:24:02;;;;;;;53.47;21.77;;;;;;;9.33;45.65;101924.00;5018002;27;98786;-70
2024/03/08 07:26:30;;;;;;;49.42;21.52;;;;;;;9.26;45.67;101912.66;5017143;27;96806;-69
2024/03/08 07:29:00;;;;;;;48.65;23.17;;;;;;;9.18;45.39;101910.13;5023439;27;97497;-69
2024/03/08 07:31:37;;;;;;;42.45;21.05;;;;;;;9.30;44.87;101913.50;5021328;27;97680;-70
2024/03/08 07:34:07;;;;;;;47.47;21.33;;;;;;;9.40;44.98;101917.75;5016640;27;101867;-70
2024/03/08 07:36:33;;;;;;;46.00;21.48;;;;;;;9.54;44.61;101905.28;5025966;27;96917;-70
2024/03/08 07:39:00;;;;;;;41.42;20.65;;;;;;;9.48;44.47;101902.72;5025959;27;96872;-74
2024/03/08 07:41:27;;;;;;;40.60;20.33;;;;;;;9.63;44.11;101913.09;5020353;27;99578;-74
2024/03/08 07:43:53;;;;;;;45.33;20.80;;;;;;;9.91;43.46;101900.38;5020488;27;101911;-74
2024/03/08 07:46:22;;;;;;;42.88;20.85;;;;;;;9.75;43.60;101906.75;5024173;27;97609;-73
2024/03/08 07:48:49;;;;;;;46.13;21.42;;;;;;;9.95;43.33;101902.06;5023025;27;97701;-73
2024/03/08 07:51:17;;;;;;;41.92;19.77;;;;;;;10.04;42.94;101898.44;5032625;27;101009;-73
2024/03/08 07:53:44;;;;;;;44.10;20.58;;;;;;;10.00;42.56;101898.47;5032846;27;98698;-74
2024/03/08 07:56:13;;;;;;;46.03;20.83;;;;;;;10.18;42.08;101891.19;5020551;27;97988;-74
2024/03/08 07:58:40;;;;;;;40.72;20.15;;;;;;;10.19;41.74;101888.53;5024663;27;101247;-74
2024/03/08 08:01:07;;;;;;;39.15;19.88;;;;;;;10.21;42.00;101891.16;5025236;27;99412;-74
2024/03/08 08:03:37;;;;;;;45.33;20.05;;;;;;;10.30;41.65;101886.59;5018855;27;99060;-74
2024/03/08 08:06:04;;;;;;;47.53;21.40;;;;;;;10.17;42.04;101884.19;5022543;27;97127;-72
2024/03/08 08:08:32;;;;;;;43.42;22.92;;;;;;;10.32;41.64;101887.44;5017427;27;99793;-72
2024/03/08 08:10:58;;;;;;;53.60;25.15;;;;;;;10.67;41.27;101878.91;5021356;27;101840;-72
2024/03/08 08:13:24;;;;;;;54.05;24.92;;;;;;;10.64;41.32;101876.31;5027719;27;99203;-76
2024/03/08 08:15:51;;;;;;;47.85;24.98;;;;;;;10.82;40.72;101879.53;5022440;27;96703;-73
2024/03/08 08:18:19;;;;;;;50.63;25.92;;;;;;;10.86;40.27;101881.19;5010750;27;101116;-76
2024/03/08 08:20:47;;;;;;;47.45;24.45;;;;;;;11.08;39.79;101878.13;5022248;27;99330;-74
2024/03/08 08:23:15;;;;;;;48.90;24.40;;;;;;;11.10;39.49;101868.38;5019741;27;99157;-77
2024/03/08 08:25:41;;;;;;;43.50;23.15;;;;;;;11.35;39.02;101875.84;5022610;27;97541;-76
2024/03/08 08:28:08;;;;;;;52.60;25.92;;;;;;;11.55;38.74;101871.00;5022145;27;97272;-76
2024/03/08 08:30:34;;;;;;;48.95;24.73;;;;;;;11.53;38.22;101876.31;5024801;27;99077;-75
2024/03/08 08:33:01;;;;;;;45.53;23.00;;;;;;;11.63;37.95;101868.16;5020064;27;101153;-74
2024/03/08 08:35:28;;;;;;;43.80;22.40;;;;;;;11.69;37.70;101868.00;5023102;27;97359;-76
2024/03/08 08:37:58;;;;;;;42.88;21.38;;;;;;;11.83;37.09;101860.66;5017905;27;96933;-75
2024/03/08 08:40:25;;;;;;;40.00;18.85;;;;;;;11.70;36.87;101867.13;5020554;27;99347;-75
2024/03/08 08:42:52;;;;;;;36.22;19.00;;;;;;;11.89;36.48;101857.88;5016191;27;99441;-76
2024/03/08 08:45:19;;;;;;;36.72;18.92;;;;;;;11.60;36.50;101861.16;5026984;27;97008;-75
2024/03/08 08:47:47;;;;;;;37.35;18.73;;;;;;;11.96;36.59;101851.53;5018476;27;98449;-73
2024/03/08 08:50:14;;;;;;;36.60;19.55;;;;;;;11.77;37.21;101855.50;5027028;27;97661;-78
2024/03/08 08:52:43;;;;;;;41.53;19.23;;;;;;;12.48;35.91;101852.88;5027765;27;97264;-76
2024/03/08 08:55:14;;;;;;;35.20;19.10;;;;;;;12.62;35.68;101848.09;5027854;27;97594;-76
2024/03/08 08:57:41;;;;;;;37.83;18.48;;;;;;;12.43;35.60;101845.06;5024022;27;96796;-75
2024/03/08 09:00:09;;;;;;;37.72;18.70;;;;;;;12.51;35.67;101836.91;5016382;27;99142;-76
2024/03/08 09:02:37;;;;;;;35.40;19.08;;;;;;;12.80;34.99;101841.44;5019635;27;98885;-70
2024/03/08 09:05:08;;;;;;;38.28;19.10;;;;;;;12.51;35.41;101837.78;5020523;27;98030;-75
2024/03/08 09:07:34;;;;;;;37.38;19.00;;;;;;;12.73;35.74;101838.94;5020330;27;97091;-73
2024/03/08 09:10:02;;;;;;;36.72;19.95;;;;;;;12.65;34.97;101835.66;5023324;27;101390;-74
2024/03/08 09:12:32;;;;;;;39.88;18.95;;;;;;;12.65;35.18;101832.13;5022576;27;97530;-70
2024/03/08 09:14:59;;;;;;;43.20;19.83;;;;;;;12.91;34.73;101832.28;5023109;27;99694;-71
2024/03/08 09:17:26;;;;;;;35.83;19.42;;;;;;;12.52;35.01;101828.94;5026717;27;98035;-71
2024/03/08 09:19:54;;;;;;;39.67;20.52;;;;;;;12.67;35.39;101827.63;5020681;27;98141;-71
2024/03/08 09:22:20;;;;;;;36.22;19.27;;;;;;;12.81;35.05;101822.81;5016914;27;100897;-71
2024/03/08 09:24:47;;;;;;;36.05;19.58;;;;;;;12.81;34.80;101824.59;5014714;27;97338;-71
2024/03/08 09:27:13;;;;;;;40.33;21.02;;;;;;;12.79;35.13;101816.72;5020935;27;97230;-70
2024/03/08 09:29:41;;;;;;;37.97;20.30;;;;;;;12.50;35.35;101813.97;5018379;27;99424;-71
2024/03/08 09:32:08;;;;;;;37.05;20.17;;;;;;;12.84;34.53;101816.56;5016500;27;99631;-70
2024/03/08 09:34:46;;;;;;;35.60;19.13;;;;;;;12.86;34.25;101818.28;5019276;27;98225;-71
2024/03/08 09:37:12;;;;;;;42.05;19.77;;;;;;;12.65;35.01;101809.13;5016522;27;97152;-75
2024/03/08 09:39:39;;;;;;;41.38;20.23;;;;;;;12.88;34.50;101808.47;5020610;27;98261;-75
2024/03/08 09:42:06;;;;;;;38.53;19.67;;;;;;;12.56;34.70;101803.19;5019876;27;99449;-75
2024/03/08 09:44:35;;;;;;;44.70;20.63;;;;;;;12.53;34.85;101803.28;5016235;27;97231;-74
2024/03/08 09:47:06;;;;;;;38.70;18.63;;;;;;;12.52;34.91;101806.84;5016716;27;97024;-71
2024/03/08 09:49:32;;;;;;;38.13;19.65;;;;;;;12.56;34.63;101805.84;5016085;27;99523;-70
2024/03/08 09:51:59;;;;;;;36.40;19.05;;;;;;;12.02;35.15;101794.88;5008280;27;99194;-71
2024/03/08 09:54:26;;;;;;;32.65;18.08;;;;;;;12.28;35.39;101798.63;5022280;27;97656;-71
2024/03/08 09:56:53;;;;;;;37.22;18.60;;;;;;;12.78;34.36;101793.75;5020146;27;98511;-70
2024/03/08 10:02:05;;;;;;;36.08;18.85;;;;;;;12.59;34.75;101787.22;5020696;27;97173;-72
2024/03/08 10:04:32;;;;;;;36.53;19.55;;;;;;;12.67;34.55;101785.19;5023077;27;99662;-71
2024/03/08 10:06:59;;;;;;;37.85;18.90;;;;;;;12.73;34.51;101774.44;5022666;27;97231;-70
2024/03/08 10:09:27;;;;;;;33.05;18.50;;;;;;;12.95;34.39;101775.56;5017638;27;97725;-77
2024/03/08 10:11:56;;;;;;;38.78;18.35;;;;;;;12.99;34.09;101774.56;5023850;27;101472;-74
2024/03/08 10:14:23;;;;;;;34.42;18.63;;;;;;;12.83;34.01;101770.59;5023325;27;97584;-75
2024/03/08 10:16:49;;;;;;;35.67;19.20;;;;;;;12.88;33.88;101771.34;5030393;27;100374;-74
2024/03/08 10:19:17;;;;;;;31.80;16.42;;;;;;;12.82;33.53;101768.00;5025873;27;98897;-76
2024/03/08 10:21:50;;;;;;;36.30;18.17;;;;;;;13.24;33.56;101755.28;5020668;27;101951;-75
2024/03/08 10:24:16;;;;;;;34.78;17.65;;;;;;;13.51;32.72;101759.75;5023194;27;96948;-75
2024/03/08 10:26:44;;;;;;;32.65;17.75;;;;;;;13.34;32.84;101754.06;5030857;27;96900;-74
2024/03/08 10:29:15;;;;;;;35.30;19.17;;;;;;;13.30;32.64;101752.44;5027502;27;98084;-75
2024/03/08 10:31:43;;;;;;;32.53;17.15;;;;;;;13.33;32.71;101747.03;5021718;27;99137;-74
2024/03/08 10:34:10;;;;;;;31.98;17.00;;;;;;;13.36;32.70;101754.91;5024639;27;96832;-74
2024/03/08 10:36:40;;;;;;;34.05;18.30;;;;;;;13.42;32.72;101752.06;5024383;27;98039;-75
2024/03/08 10:39:21;;;;;;;30.50;16.80;;;;;;;13.48;32.45;101743.91;5027604;27;99103;-74
2024/03/08 10:41:53;;;;;;;32.78;16.80;;;;;;;13.65;32.36;101741.59;5033667;27;97760;-75
2024/03/08 10:44:34;;;;;;;31.90;16.48;;;;;;;13.35;32.31;101735.44;5033069;27;97227;-75
2024/03/08 10:47:05;;;;;;;30.60;16.58;;;;;;;13.37;32.32;101741.59;5034590;27;96829;-73
2024/03/08 10:49:34;;;;;;;33.65;16.98;;;;;;;12.85;33.01;101734.31;5028671;27;99278;-75
2024/03/08 10:52:05;;;;;;;33.33;17.00;;;;;;;13.10;32.70;101726.47;5028033;27;99323;-75
2024/03/08 10:54:32;;;;;;;32.85;16.88;;;;;;;13.35;32.35;101731.94;5029598;27;96989;-74
2024/03/08 10:57:01;;;;;;;34.67;16.42;;;;;;;13.15;32.63;101735.19;5028284;27;97072;-75
2024/03/08 10:59:28;;;;;;;28.27;14.90;;;;;;;12.97;32.39;101722.47;5028473;27;99252;-75
2024/03/08 11:01:55;;;;;;;30.25;15.52;;;;;;;12.92;32.38;101717.31;5028534;27;98828;-75
2024/03/08 11:04:22;;;;;;;30.02;15.63;;;;;;;12.92;32.37;101717.31;5024422;27;96853;-76
2024/03/08 11:07:17;;;;;;;31.35;15.73;;;;;;;12.89;32.20;101709.41;5020743;27;97025;-75
2024/03/08 11:09:45;;;;;;;29.92;14.70;;;;;;;13.01;31.97;101706.38;5030210;27;98378;-72
2024/03/08 11:12:26;;;;;;;24.38;14.02;;;;;;;12.87;31.87;101705.94;5021649;27;98881;-71
2024/03/08 11:14:53;;;;;;;27.45;15.43;;;;;;;12.99;31.88;101696.75;5023331;27;97243;-72
2024/03/08 11:17:40;;;;;;;27.15;15.23;;;;;;;12.90;31.80;101692.59;5017860;27;96919;-71
2024/03/08 11:20:15;;;;;;;28.85;15.15;;;;;;;12.99;31.91;101691.47;5022566;27;98960;-71